Terminal Aerodrome Forecast
Issued by NWS Missoula, MT

Home | Current Version | Previous Version | Text Only | Print | Product List | Glossary On
Versions: 1 2 3 4 5 6 7 8 9 10 11 12 13 14
000
FTUS45 KMSO 050105 AAA
TAFBTM
TAF AMD
KBTM 050105Z 0501/0524 14005KT P6SM FEW100
     FM050400 16005KT P6SM SCT100
     FM052200 31012KT P6SM VCTS BKN100CB=

USA.gov is the U.S. government's official web portal to all federal, state and local government web resources and services.